sensor_id;sensor_type;location;lat;lon;timestamp;P1;durP1;ratioP1;P2;durP2;ratioP2
33864;SDS011;20159;51.072;13.526;2023-02-08T00:01:10;52.22;;;33.17;;
33864;SDS011;20159;51.072;13.526;2023-02-08T00:03:37;53.47;;;35.78;;
33864;SDS011;20159;51.072;13.526;2023-02-08T00:06:03;48.55;;;33.58;;
33864;SDS011;20159;51.072;13.526;2023-02-08T00:08:29;51.80;;;33.50;;
33864;SDS011;20159;51.072;13.526;2023-02-08T00:10:55;49.42;;;33.45;;
33864;SDS011;20159;51.072;13.526;2023-02-08T00:13:21;53.85;;;35.00;;
33864;SDS011;20159;51.072;13.526;2023-02-08T00:15:47;51.65;;;32.80;;
33864;SDS011;20159;51.072;13.526;2023-02-08T00:18:12;53.17;;;33.28;;
33864;SDS011;20159;51.072;13.526;2023-02-08T00:20:38;49.88;;;33.65;;
33864;SDS011;20159;51.072;13.526;2023-02-08T00:23:05;54.28;;;33.85;;
33864;SDS011;20159;51.072;13.526;2023-02-08T00:25:31;51.33;;;34.35;;
33864;SDS011;20159;51.072;13.526;2023-02-08T00:27:57;49.53;;;33.80;;
33864;SDS011;20159;51.072;13.526;2023-02-08T00:30:22;53.65;;;35.35;;
33864;SDS011;20159;51.072;13.526;2023-02-08T00:32:48;53.70;;;34.95;;
33864;SDS011;20159;51.072;13.526;2023-02-08T00:35:13;53.85;;;33.92;;
33864;SDS011;20159;51.072;13.526;2023-02-08T00:37:39;50.80;;;33.92;;
33864;SDS011;20159;51.072;13.526;2023-02-08T00:40:05;54.65;;;34.55;;
33864;SDS011;20159;51.072;13.526;2023-02-08T00:42:31;56.55;;;35.53;;
33864;SDS011;20159;51.072;13.526;2023-02-08T00:44:56;51.28;;;34.08;;
33864;SDS011;20159;51.072;13.526;2023-02-08T00:47:22;50.70;;;33.80;;
33864;SDS011;20159;51.072;13.526;2023-02-08T00:49:48;54.60;;;34.30;;
33864;SDS011;20159;51.072;13.526;2023-02-08T00:52:13;52.45;;;33.17;;
33864;SDS011;20159;51.072;13.526;2023-02-08T00:54:39;50.42;;;32.88;;
33864;SDS011;20159;51.072;13.526;2023-02-08T00:57:05;51.45;;;32.65;;
33864;SDS011;20159;51.072;13.526;2023-02-08T00:59:31;49.10;;;33.10;;
33864;SDS011;20159;51.072;13.526;2023-02-08T01:01:57;53.38;;;34.40;;
33864;SDS011;20159;51.072;13.526;2023-02-08T01:04:22;51.80;;;35.03;;
33864;SDS011;20159;51.072;13.526;2023-02-08T01:06:48;48.78;;;33.00;;
33864;SDS011;20159;51.072;13.526;2023-02-08T01:09:13;46.65;;;32.88;;
33864;SDS011;20159;51.072;13.526;2023-02-08T01:11:39;48.50;;;32.13;;
33864;SDS011;20159;51.072;13.526;2023-02-08T01:14:04;51.35;;;33.95;;
33864;SDS011;20159;51.072;13.526;2023-02-08T01:16:31;45.63;;;31.20;;
33864;SDS011;20159;51.072;13.526;2023-02-08T01:18:58;46.20;;;30.58;;
33864;SDS011;20159;51.072;13.526;2023-02-08T01:21:26;48.33;;;31.08;;
33864;SDS011;20159;51.072;13.526;2023-02-08T01:23:54;47.97;;;31.08;;
33864;SDS011;20159;51.072;13.526;2023-02-08T01:26:20;47.95;;;30.90;;
33864;SDS011;20159;51.072;13.526;2023-02-08T01:28:46;45.80;;;31.10;;
33864;SDS011;20159;51.072;13.526;2023-02-08T01:31:14;45.72;;;29.50;;
33864;SDS011;20159;51.072;13.526;2023-02-08T01:33:41;45.22;;;29.90;;
33864;SDS011;20159;51.072;13.526;2023-02-08T01:36:07;47.10;;;29.95;;
33864;SDS011;20159;51.072;13.526;2023-02-08T01:38:33;44.78;;;30.70;;
33864;SDS011;20159;51.072;13.526;2023-02-08T01:41:00;51.75;;;31.88;;
33864;SDS011;20159;51.072;13.526;2023-02-08T01:43:30;47.78;;;30.30;;
33864;SDS011;20159;51.072;13.526;2023-02-08T01:45:58;45.60;;;30.40;;
33864;SDS011;20159;51.072;13.526;2023-02-08T01:48:34;43.60;;;30.23;;
33864;SDS011;20159;51.072;13.526;2023-02-08T01:53:40;45.80;;;30.77;;
33864;SDS011;20159;51.072;13.526;2023-02-08T01:56:08;46.88;;;29.30;;
33864;SDS011;20159;51.072;13.526;2023-02-08T01:58:37;42.33;;;28.35;;
33864;SDS011;20159;51.072;13.526;2023-02-08T02:01:07;42.22;;;27.85;;
33864;SDS011;20159;51.072;13.526;2023-02-08T02:03:33;43.53;;;28.23;;
33864;SDS011;20159;51.072;13.526;2023-02-08T02:06:03;39.70;;;26.77;;
33864;SDS011;20159;51.072;13.526;2023-02-08T02:11:00;35.83;;;24.33;;
33864;SDS011;20159;51.072;13.526;2023-02-08T02:13:26;37.53;;;25.05;;
33864;SDS011;20159;51.072;13.526;2023-02-08T02:15:53;41.00;;;26.88;;
33864;SDS011;20159;51.072;13.526;2023-02-08T02:18:21;39.50;;;26.00;;
33864;SDS011;20159;51.072;13.526;2023-02-08T02:23:27;39.63;;;24.45;;
33864;SDS011;20159;51.072;13.526;2023-02-08T02:26:16;39.03;;;26.92;;
33864;SDS011;20159;51.072;13.526;2023-02-08T02:31:58;38.78;;;25.58;;
33864;SDS011;20159;51.072;13.526;2023-02-08T02:34:49;37.28;;;23.05;;
33864;SDS011;20159;51.072;13.526;2023-02-08T02:45:56;37.70;;;26.17;;
33864;SDS011;20159;51.072;13.526;2023-02-08T02:48:30;36.88;;;24.05;;
33864;SDS011;20159;51.072;13.526;2023-02-08T02:51:11;38.20;;;24.15;;
33864;SDS011;20159;51.072;13.526;2023-02-08T02:56:23;31.37;;;22.33;;
33864;SDS011;20159;51.072;13.526;2023-02-08T02:59:00;33.80;;;21.92;;
33864;SDS011;20159;51.072;13.526;2023-02-08T03:01:31;34.65;;;23.17;;
33864;SDS011;20159;51.072;13.526;2023-02-08T03:03:57;33.95;;;23.45;;
33864;SDS011;20159;51.072;13.526;2023-02-08T03:07:10;33.35;;;22.10;;
33864;SDS011;20159;51.072;13.526;2023-02-08T03:14:59;31.92;;;21.27;;
33864;SDS011;20159;51.072;13.526;2023-02-08T03:17:33;35.33;;;22.13;;
33864;SDS011;20159;51.072;13.526;2023-02-08T03:20:13;34.80;;;23.27;;
33864;SDS011;20159;51.072;13.526;2023-02-08T03:22:54;32.22;;;21.50;;
33864;SDS011;20159;51.072;13.526;2023-02-08T03:25:31;33.33;;;21.40;;
33864;SDS011;20159;51.072;13.526;2023-02-08T03:28:05;33.63;;;21.33;;
33864;SDS011;20159;51.072;13.526;2023-02-08T03:30:38;32.60;;;21.65;;
33864;SDS011;20159;51.072;13.526;2023-02-08T03:33:20;32.30;;;20.88;;
33864;SDS011;20159;51.072;13.526;2023-02-08T03:35:53;30.25;;;19.25;;
33864;SDS011;20159;51.072;13.526;2023-02-08T03:38:28;32.78;;;20.60;;
33864;SDS011;20159;51.072;13.526;2023-02-08T03:41:08;34.05;;;19.90;;
33864;SDS011;20159;51.072;13.526;2023-02-08T03:43:45;32.55;;;22.25;;
33864;SDS011;20159;51.072;13.526;2023-02-08T03:46:32;30.85;;;21.20;;
33864;SDS011;20159;51.072;13.526;2023-02-08T03:49:06;32.42;;;21.80;;
33864;SDS011;20159;51.072;13.526;2023-02-08T03:51:40;30.98;;;21.80;;
33864;SDS011;20159;51.072;13.526;2023-02-08T03:54:14;36.00;;;22.55;;
33864;SDS011;20159;51.072;13.526;2023-02-08T03:56:46;32.38;;;21.27;;
33864;SDS011;20159;51.072;13.526;2023-02-08T03:59:28;34.17;;;22.70;;
33864;SDS011;20159;51.072;13.526;2023-02-08T04:01:58;31.58;;;21.08;;
33864;SDS011;20159;51.072;13.526;2023-02-08T04:04:26;36.47;;;22.20;;
33864;SDS011;20159;51.072;13.526;2023-02-08T04:07:01;32.80;;;22.45;;
33864;SDS011;20159;51.072;13.526;2023-02-08T04:09:26;36.40;;;22.38;;
33864;SDS011;20159;51.072;13.526;2023-02-08T04:11:52;33.67;;;20.80;;
33864;SDS011;20159;51.072;13.526;2023-02-08T04:14:17;31.45;;;21.73;;
33864;SDS011;20159;51.072;13.526;2023-02-08T04:16:43;33.60;;;21.10;;
33864;SDS011;20159;51.072;13.526;2023-02-08T04:19:08;29.92;;;20.02;;
33864;SDS011;20159;51.072;13.526;2023-02-08T04:21:34;32.97;;;20.33;;
33864;SDS011;20159;51.072;13.526;2023-02-08T04:23:59;30.60;;;19.90;;
33864;SDS011;20159;51.072;13.526;2023-02-08T04:26:25;32.17;;;19.73;;
33864;SDS011;20159;51.072;13.526;2023-02-08T04:28:51;30.73;;;19.73;;
33864;SDS011;20159;51.072;13.526;2023-02-08T04:31:16;27.48;;;17.75;;
33864;SDS011;20159;51.072;13.526;2023-02-08T04:33:42;31.63;;;19.33;;
33864;SDS011;20159;51.072;13.526;2023-02-08T04:36:07;28.55;;;16.98;;
33864;SDS011;20159;51.072;13.526;2023-02-08T04:38:33;28.13;;;18.88;;
33864;SDS011;20159;51.072;13.526;2023-02-08T04:40:59;28.25;;;19.05;;
33864;SDS011;20159;51.072;13.526;2023-02-08T04:43:24;27.00;;;18.48;;
33864;SDS011;20159;51.072;13.526;2023-02-08T04:45:50;26.98;;;16.75;;
33864;SDS011;20159;51.072;13.526;2023-02-08T04:48:16;29.08;;;16.50;;
33864;SDS011;20159;51.072;13.526;2023-02-08T04:50:42;30.20;;;18.77;;
33864;SDS011;20159;51.072;13.526;2023-02-08T04:53:08;29.63;;;17.88;;
33864;SDS011;20159;51.072;13.526;2023-02-08T04:55:33;25.90;;;17.52;;
33864;SDS011;20159;51.072;13.526;2023-02-08T04:57:59;30.67;;;18.52;;
33864;SDS011;20159;51.072;13.526;2023-02-08T05:00:24;30.40;;;20.02;;
33864;SDS011;20159;51.072;13.526;2023-02-08T05:02:53;30.33;;;18.60;;
33864;SDS011;20159;51.072;13.526;2023-02-08T05:05:19;30.35;;;19.25;;
33864;SDS011;20159;51.072;13.526;2023-02-08T05:07:45;30.08;;;19.42;;
33864;SDS011;20159;51.072;13.526;2023-02-08T05:10:11;32.95;;;20.85;;
33864;SDS011;20159;51.072;13.526;2023-02-08T05:12:36;31.60;;;19.63;;
33864;SDS011;20159;51.072;13.526;2023-02-08T05:15:02;33.60;;;21.40;;
33864;SDS011;20159;51.072;13.526;2023-02-08T05:17:27;31.60;;;21.60;;
33864;SDS011;20159;51.072;13.526;2023-02-08T05:19:53;35.72;;;21.55;;
33864;SDS011;20159;51.072;13.526;2023-02-08T05:22:18;32.83;;;20.33;;
33864;SDS011;20159;51.072;13.526;2023-02-08T05:24:44;32.58;;;21.58;;
33864;SDS011;20159;51.072;13.526;2023-02-08T05:27:09;36.38;;;22.38;;
33864;SDS011;20159;51.072;13.526;2023-02-08T05:29:35;31.73;;;20.52;;
33864;SDS011;20159;51.072;13.526;2023-02-08T05:32:00;33.55;;;19.90;;
33864;SDS011;20159;51.072;13.526;2023-02-08T05:34:26;34.38;;;20.98;;
33864;SDS011;20159;51.072;13.526;2023-02-08T05:36:51;34.65;;;20.95;;
33864;SDS011;20159;51.072;13.526;2023-02-08T05:39:16;33.08;;;20.58;;
33864;SDS011;20159;51.072;13.526;2023-02-08T05:41:42;33.38;;;20.38;;
33864;SDS011;20159;51.072;13.526;2023-02-08T05:44:07;33.17;;;21.05;;
33864;SDS011;20159;51.072;13.526;2023-02-08T05:46:33;31.75;;;20.27;;
33864;SDS011;20159;51.072;13.526;2023-02-08T05:48:58;33.53;;;19.95;;
33864;SDS011;20159;51.072;13.526;2023-02-08T05:51:24;33.58;;;19.27;;
33864;SDS011;20159;51.072;13.526;2023-02-08T05:53:49;35.70;;;21.90;;
33864;SDS011;20159;51.072;13.526;2023-02-08T05:56:15;34.97;;;20.08;;
33864;SDS011;20159;51.072;13.526;2023-02-08T05:58:40;32.63;;;20.48;;
33864;SDS011;20159;51.072;13.526;2023-02-08T06:01:06;33.78;;;19.77;;
33864;SDS011;20159;51.072;13.526;2023-02-08T06:03:36;31.35;;;20.15;;
33864;SDS011;20159;51.072;13.526;2023-02-08T06:06:03;30.58;;;20.08;;
33864;SDS011;20159;51.072;13.526;2023-02-08T06:08:28;35.80;;;21.92;;
33864;SDS011;20159;51.072;13.526;2023-02-08T06:10:54;30.40;;;19.85;;
33864;SDS011;20159;51.072;13.526;2023-02-08T06:13:19;36.72;;;20.25;;
33864;SDS011;20159;51.072;13.526;2023-02-08T06:15:45;33.30;;;20.85;;
33864;SDS011;20159;51.072;13.526;2023-02-08T06:18:11;30.98;;;19.48;;
33864;SDS011;20159;51.072;13.526;2023-02-08T06:20:36;36.53;;;21.27;;
33864;SDS011;20159;51.072;13.526;2023-02-08T06:23:02;35.47;;;22.73;;
33864;SDS011;20159;51.072;13.526;2023-02-08T06:25:28;34.05;;;20.67;;
33864;SDS011;20159;51.072;13.526;2023-02-08T06:27:53;31.85;;;20.25;;
33864;SDS011;20159;51.072;13.526;2023-02-08T06:30:19;33.33;;;21.08;;
33864;SDS011;20159;51.072;13.526;2023-02-08T06:32:44;32.78;;;22.27;;
33864;SDS011;20159;51.072;13.526;2023-02-08T06:35:10;34.40;;;21.88;;
33864;SDS011;20159;51.072;13.526;2023-02-08T06:37:35;30.95;;;20.55;;
33864;SDS011;20159;51.072;13.526;2023-02-08T06:40:01;34.15;;;21.17;;
33864;SDS011;20159;51.072;13.526;2023-02-08T06:42:27;32.03;;;21.33;;
33864;SDS011;20159;51.072;13.526;2023-02-08T06:44:53;34.13;;;21.30;;
33864;SDS011;20159;51.072;13.526;2023-02-08T06:47:20;34.47;;;20.55;;
33864;SDS011;20159;51.072;13.526;2023-02-08T06:49:46;31.58;;;19.90;;
33864;SDS011;20159;51.072;13.526;2023-02-08T06:52:12;30.85;;;19.10;;
33864;SDS011;20159;51.072;13.526;2023-02-08T06:54:38;34.55;;;20.33;;
33864;SDS011;20159;51.072;13.526;2023-02-08T06:57:04;34.47;;;21.58;;
33864;SDS011;20159;51.072;13.526;2023-02-08T06:59:32;31.30;;;19.25;;
33864;SDS011;20159;51.072;13.526;2023-02-08T07:01:57;30.92;;;20.40;;
33864;SDS011;20159;51.072;13.526;2023-02-08T07:04:23;34.58;;;21.88;;
33864;SDS011;20159;51.072;13.526;2023-02-08T07:06:48;30.08;;;20.40;;
33864;SDS011;20159;51.072;13.526;2023-02-08T07:09:14;31.25;;;20.77;;
33864;SDS011;20159;51.072;13.526;2023-02-08T07:11:40;32.97;;;21.40;;
33864;SDS011;20159;51.072;13.526;2023-02-08T07:14:06;35.65;;;22.48;;
33864;SDS011;20159;51.072;13.526;2023-02-08T07:16:31;35.17;;;23.70;;
33864;SDS011;20159;51.072;13.526;2023-02-08T07:18:57;33.50;;;22.15;;
33864;SDS011;20159;51.072;13.526;2023-02-08T07:21:22;37.67;;;23.50;;
33864;SDS011;20159;51.072;13.526;2023-02-08T07:23:48;32.20;;;21.25;;
33864;SDS011;20159;51.072;13.526;2023-02-08T07:26:14;34.25;;;22.67;;
33864;SDS011;20159;51.072;13.526;2023-02-08T07:28:40;34.97;;;24.60;;
33864;SDS011;20159;51.072;13.526;2023-02-08T07:31:07;32.53;;;23.90;;
33864;SDS011;20159;51.072;13.526;2023-02-08T07:33:33;35.08;;;25.05;;
33864;SDS011;20159;51.072;13.526;2023-02-08T07:35:59;37.25;;;27.30;;
33864;SDS011;20159;51.072;13.526;2023-02-08T07:38:25;38.38;;;28.58;;
33864;SDS011;20159;51.072;13.526;2023-02-08T07:40:50;35.08;;;25.95;;
33864;SDS011;20159;51.072;13.526;2023-02-08T07:43:16;35.85;;;28.35;;
33864;SDS011;20159;51.072;13.526;2023-02-08T07:45:41;36.50;;;30.10;;
33864;SDS011;20159;51.072;13.526;2023-02-08T07:48:07;36.42;;;28.77;;
33864;SDS011;20159;51.072;13.526;2023-02-08T07:50:32;38.40;;;29.20;;
33864;SDS011;20159;51.072;13.526;2023-02-08T07:52:58;38.75;;;30.15;;
33864;SDS011;20159;51.072;13.526;2023-02-08T07:55:23;37.30;;;30.50;;
33864;SDS011;20159;51.072;13.526;2023-02-08T07:57:49;41.30;;;31.95;;
33864;SDS011;20159;51.072;13.526;2023-02-08T08:00:15;39.05;;;31.02;;
33864;SDS011;20159;51.072;13.526;2023-02-08T08:02:42;38.55;;;30.85;;
33864;SDS011;20159;51.072;13.526;2023-02-08T08:05:08;37.58;;;30.00;;
33864;SDS011;20159;51.072;13.526;2023-02-08T08:07:34;40.25;;;32.47;;
33864;SDS011;20159;51.072;13.526;2023-02-08T08:10:00;44.22;;;34.60;;
33864;SDS011;20159;51.072;13.526;2023-02-08T08:12:26;47.15;;;38.30;;
33864;SDS011;20159;51.072;13.526;2023-02-08T08:14:51;46.28;;;37.20;;
33864;SDS011;20159;51.072;13.526;2023-02-08T08:17:17;51.13;;;40.75;;
33864;SDS011;20159;51.072;13.526;2023-02-08T08:19:43;48.85;;;39.25;;
33864;SDS011;20159;51.072;13.526;2023-02-08T08:22:08;50.10;;;39.45;;
33864;SDS011;20159;51.072;13.526;2023-02-08T08:24:34;48.53;;;38.60;;
33864;SDS011;20159;51.072;13.526;2023-02-08T08:27:01;46.58;;;37.22;;
33864;SDS011;20159;51.072;13.526;2023-02-08T08:29:30;46.90;;;38.78;;
33864;SDS011;20159;51.072;13.526;2023-02-08T08:31:57;47.10;;;36.50;;
33864;SDS011;20159;51.072;13.526;2023-02-08T08:34:22;44.78;;;36.13;;
33864;SDS011;20159;51.072;13.526;2023-02-08T08:36:54;44.58;;;37.05;;
33864;SDS011;20159;51.072;13.526;2023-02-08T08:39:22;43.65;;;36.35;;
33864;SDS011;20159;51.072;13.526;2023-02-08T08:41:48;45.10;;;37.08;;
33864;SDS011;20159;51.072;13.526;2023-02-08T08:44:14;43.55;;;35.45;;
33864;SDS011;20159;51.072;13.526;2023-02-08T08:46:39;43.63;;;35.70;;
33864;SDS011;20159;51.072;13.526;2023-02-08T08:49:05;41.83;;;35.25;;
33864;SDS011;20159;51.072;13.526;2023-02-08T08:51:30;43.72;;;35.85;;
33864;SDS011;20159;51.072;13.526;2023-02-08T08:53:59;42.40;;;34.47;;
33864;SDS011;20159;51.072;13.526;2023-02-08T08:56:25;42.50;;;34.85;;
33864;SDS011;20159;51.072;13.526;2023-02-08T08:58:51;41.75;;;34.92;;
33864;SDS011;20159;51.072;13.526;2023-02-08T09:01:17;41.15;;;33.75;;
33864;SDS011;20159;51.072;13.526;2023-02-08T09:03:42;41.22;;;33.97;;
33864;SDS011;20159;51.072;13.526;2023-02-08T09:06:08;40.95;;;33.30;;
33864;SDS011;20159;51.072;13.526;2023-02-08T09:08:33;38.42;;;32.67;;
33864;SDS011;20159;51.072;13.526;2023-02-08T09:11:05;40.20;;;33.00;;
33864;SDS011;20159;51.072;13.526;2023-02-08T09:13:32;41.50;;;33.17;;
33864;SDS011;20159;51.072;13.526;2023-02-08T09:16:03;42.13;;;34.35;;
33864;SDS011;20159;51.072;13.526;2023-02-08T09:18:33;38.22;;;31.58;;
33864;SDS011;20159;51.072;13.526;2023-02-08T09:20:58;39.80;;;34.63;;
33864;SDS011;20159;51.072;13.526;2023-02-08T09:23:28;38.67;;;32.95;;
33864;SDS011;20159;51.072;13.526;2023-02-08T09:25:54;39.75;;;33.40;;
33864;SDS011;20159;51.072;13.526;2023-02-08T09:28:19;38.90;;;32.80;;
33864;SDS011;20159;51.072;13.526;2023-02-08T09:30:45;40.08;;;32.10;;
33864;SDS011;20159;51.072;13.526;2023-02-08T09:33:10;38.40;;;32.53;;
33864;SDS011;20159;51.072;13.526;2023-02-08T09:35:36;37.70;;;31.90;;
33864;SDS011;20159;51.072;13.526;2023-02-08T09:38:01;39.47;;;33.38;;
33864;SDS011;20159;51.072;13.526;2023-02-08T09:40:32;41.30;;;33.17;;
33864;SDS011;20159;51.072;13.526;2023-02-08T09:43:39;38.35;;;31.85;;
33864;SDS011;20159;51.072;13.526;2023-02-08T09:46:17;38.60;;;33.20;;
33864;SDS011;20159;51.072;13.526;2023-02-08T09:48:45;37.35;;;32.08;;
33864;SDS011;20159;51.072;13.526;2023-02-08T09:54:00;39.13;;;31.55;;
33864;SDS011;20159;51.072;13.526;2023-02-08T09:56:32;36.45;;;30.48;;
33864;SDS011;20159;51.072;13.526;2023-02-08T09:59:01;40.38;;;31.52;;
33864;SDS011;20159;51.072;13.526;2023-02-08T10:01:28;39.63;;;32.53;;
33864;SDS011;20159;51.072;13.526;2023-02-08T10:03:58;38.50;;;31.05;;
33864;SDS011;20159;51.072;13.526;2023-02-08T10:06:47;40.28;;;32.08;;
33864;SDS011;20159;51.072;13.526;2023-02-08T10:09:13;38.60;;;32.00;;
33864;SDS011;20159;51.072;13.526;2023-02-08T10:11:47;40.45;;;31.90;;
33864;SDS011;20159;51.072;13.526;2023-02-08T10:17:06;38.22;;;32.30;;
33864;SDS011;20159;51.072;13.526;2023-02-08T10:27:54;43.78;;;33.58;;
33864;SDS011;20159;51.072;13.526;2023-02-08T10:30:37;40.92;;;33.38;;
33864;SDS011;20159;51.072;13.526;2023-02-08T10:33:16;40.67;;;32.28;;
33864;SDS011;20159;51.072;13.526;2023-02-08T10:38:24;39.67;;;31.65;;
33864;SDS011;20159;51.072;13.526;2023-02-08T10:46:04;36.20;;;30.48;;
33864;SDS011;20159;51.072;13.526;2023-02-08T10:48:48;38.55;;;31.27;;
33864;SDS011;20159;51.072;13.526;2023-02-08T10:51:24;39.25;;;31.00;;
33864;SDS011;20159;51.072;13.526;2023-02-08T10:53:50;40.63;;;32.70;;
33864;SDS011;20159;51.072;13.526;2023-02-08T10:58:53;42.30;;;33.15;;
33864;SDS011;20159;51.072;13.526;2023-02-08T11:01:19;42.05;;;33.58;;
33864;SDS011;20159;51.072;13.526;2023-02-08T11:04:01;39.08;;;31.55;;
33864;SDS011;20159;51.072;13.526;2023-02-08T11:06:34;38.45;;;29.90;;
33864;SDS011;20159;51.072;13.526;2023-02-08T11:09:00;37.85;;;30.00;;
33864;SDS011;20159;51.072;13.526;2023-02-08T11:11:25;39.78;;;31.27;;
33864;SDS011;20159;51.072;13.526;2023-02-08T11:14:14;37.22;;;31.02;;
33864;SDS011;20159;51.072;13.526;2023-02-08T11:16:47;39.90;;;30.83;;
33864;SDS011;20159;51.072;13.526;2023-02-08T11:19:57;36.95;;;30.05;;
33864;SDS011;20159;51.072;13.526;2023-02-08T11:22:11;36.45;;;29.88;;
33864;SDS011;20159;51.072;13.526;2023-02-08T11:24:42;40.65;;;30.38;;
33864;SDS011;20159;51.072;13.526;2023-02-08T11:30:10;34.95;;;28.42;;
33864;SDS011;20159;51.072;13.526;2023-02-08T11:32:44;35.15;;;28.33;;
33864;SDS011;20159;51.072;13.526;2023-02-08T11:35:12;34.95;;;28.08;;
33864;SDS011;20159;51.072;13.526;2023-02-08T11:37:47;36.55;;;28.00;;
33864;SDS011;20159;51.072;13.526;2023-02-08T11:40:20;33.90;;;26.83;;
33864;SDS011;20159;51.072;13.526;2023-02-08T11:42:48;36.17;;;27.60;;
33864;SDS011;20159;51.072;13.526;2023-02-08T11:45:26;32.60;;;26.80;;
33864;SDS011;20159;51.072;13.526;2023-02-08T11:47:55;36.67;;;28.20;;
33864;SDS011;20159;51.072;13.526;2023-02-08T11:53:04;32.97;;;26.35;;
33864;SDS011;20159;51.072;13.526;2023-02-08T11:56:16;30.65;;;25.13;;
33864;SDS011;20159;51.072;13.526;2023-02-08T12:01:42;30.98;;;23.98;;
33864;SDS011;20159;51.072;13.526;2023-02-08T12:04:11;30.95;;;24.40;;
33864;SDS011;20159;51.072;13.526;2023-02-08T12:12:16;28.67;;;23.05;;
33864;SDS011;20159;51.072;13.526;2023-02-08T12:15:11;30.25;;;23.48;;
33864;SDS011;20159;51.072;13.526;2023-02-08T12:18:19;30.85;;;23.95;;
33864;SDS011;20159;51.072;13.526;2023-02-08T12:21:15;33.15;;;25.38;;
33864;SDS011;20159;51.072;13.526;2023-02-08T12:23:54;32.72;;;24.77;;
33864;SDS011;20159;51.072;13.526;2023-02-08T12:26:30;30.10;;;24.33;;
33864;SDS011;20159;51.072;13.526;2023-02-08T12:29:07;28.83;;;23.63;;
33864;SDS011;20159;51.072;13.526;2023-02-08T12:31:59;31.35;;;24.42;;
33864;SDS011;20159;51.072;13.526;2023-02-08T12:34:41;33.67;;;23.80;;
33864;SDS011;20159;51.072;13.526;2023-02-08T12:40:49;29.42;;;22.45;;
33864;SDS011;20159;51.072;13.526;2023-02-08T12:43:48;25.67;;;21.05;;
33864;SDS011;20159;51.072;13.526;2023-02-08T12:46:28;29.50;;;23.02;;
33864;SDS011;20159;51.072;13.526;2023-02-08T12:52:13;26.65;;;22.08;;
33864;SDS011;20159;51.072;13.526;2023-02-08T12:54:52;29.00;;;22.30;;
33864;SDS011;20159;51.072;13.526;2023-02-08T12:57:23;30.23;;;22.20;;
33864;SDS011;20159;51.072;13.526;2023-02-08T13:00:04;29.27;;;22.13;;
33864;SDS011;20159;51.072;13.526;2023-02-08T13:05:29;28.65;;;21.17;;
33864;SDS011;20159;51.072;13.526;2023-02-08T13:08:01;28.52;;;23.30;;
33864;SDS011;20159;51.072;13.526;2023-02-08T13:10:48;28.08;;;21.58;;
33864;SDS011;20159;51.072;13.526;2023-02-08T13:13:24;27.98;;;21.67;;
33864;SDS011;20159;51.072;13.526;2023-02-08T13:16:04;26.70;;;21.52;;
33864;SDS011;20159;51.072;13.526;2023-02-08T13:18:41;25.98;;;21.70;;
33864;SDS011;20159;51.072;13.526;2023-02-08T13:21:12;25.80;;;20.50;;
33864;SDS011;20159;51.072;13.526;2023-02-08T13:23:42;27.33;;;21.15;;
33864;SDS011;20159;51.072;13.526;2023-02-08T13:28:39;25.95;;;20.45;;
33864;SDS011;20159;51.072;13.526;2023-02-08T13:31:17;26.60;;;20.50;;
33864;SDS011;20159;51.072;13.526;2023-02-08T13:36:23;26.65;;;21.13;;
33864;SDS011;20159;51.072;13.526;2023-02-08T13:38:59;25.77;;;19.55;;
33864;SDS011;20159;51.072;13.526;2023-02-08T13:41:27;26.80;;;20.83;;
33864;SDS011;20159;51.072;13.526;2023-02-08T13:43:54;27.10;;;21.50;;
33864;SDS011;20159;51.072;13.526;2023-02-08T13:46:24;27.85;;;20.95;;
33864;SDS011;20159;51.072;13.526;2023-02-08T13:48:53;28.90;;;22.13;;
33864;SDS011;20159;51.072;13.526;2023-02-08T13:59:02;29.42;;;22.02;;
33864;SDS011;20159;51.072;13.526;2023-02-08T14:01:29;27.40;;;22.00;;
33864;SDS011;20159;51.072;13.526;2023-02-08T14:06:31;25.40;;;20.73;;
33864;SDS011;20159;51.072;13.526;2023-02-08T14:14:16;28.13;;;22.27;;
33864;SDS011;20159;51.072;13.526;2023-02-08T14:19:28;27.00;;;21.33;;
33864;SDS011;20159;51.072;13.526;2023-02-08T14:22:02;28.92;;;22.25;;
33864;SDS011;20159;51.072;13.526;2023-02-08T14:24:48;28.95;;;21.48;;
33864;SDS011;20159;51.072;13.526;2023-02-08T14:27:28;27.67;;;21.15;;
33864;SDS011;20159;51.072;13.526;2023-02-08T14:30:17;27.73;;;21.38;;
33864;SDS011;20159;51.072;13.526;2023-02-08T14:33:06;29.17;;;21.63;;
33864;SDS011;20159;51.072;13.526;2023-02-08T14:35:36;27.58;;;20.40;;
33864;SDS011;20159;51.072;13.526;2023-02-08T14:45:56;24.60;;;19.55;;
33864;SDS011;20159;51.072;13.526;2023-02-08T14:48:43;23.30;;;18.75;;
33864;SDS011;20159;51.072;13.526;2023-02-08T14:51:17;23.50;;;18.60;;
33864;SDS011;20159;51.072;13.526;2023-02-08T14:53:51;24.33;;;18.90;;
33864;SDS011;20159;51.072;13.526;2023-02-08T14:56:27;22.35;;;17.77;;
33864;SDS011;20159;51.072;13.526;2023-02-08T14:58:54;21.65;;;16.90;;
33864;SDS011;20159;51.072;13.526;2023-02-08T15:01:27;21.80;;;16.02;;
33864;SDS011;20159;51.072;13.526;2023-02-08T15:03:57;21.17;;;15.85;;
33864;SDS011;20159;51.072;13.526;2023-02-08T15:12:01;20.88;;;15.40;;
33864;SDS011;20159;51.072;13.526;2023-02-08T15:14:39;21.52;;;15.48;;
33864;SDS011;20159;51.072;13.526;2023-02-08T15:17:05;20.60;;;16.77;;
33864;SDS011;20159;51.072;13.526;2023-02-08T15:19:39;21.00;;;15.48;;
33864;SDS011;20159;51.072;13.526;2023-02-08T15:24:54;20.98;;;16.17;;
33864;SDS011;20159;51.072;13.526;2023-02-08T15:27:27;23.00;;;17.17;;
33864;SDS011;20159;51.072;13.526;2023-02-08T15:29:55;22.33;;;16.38;;
33864;SDS011;20159;51.072;13.526;2023-02-08T15:32:21;22.08;;;16.67;;
33864;SDS011;20159;51.072;13.526;2023-02-08T15:35:01;21.58;;;16.88;;
33864;SDS011;20159;51.072;13.526;2023-02-08T15:37:29;24.30;;;17.30;;
33864;SDS011;20159;51.072;13.526;2023-02-08T15:39:57;23.05;;;17.33;;
33864;SDS011;20159;51.072;13.526;2023-02-08T15:42:25;24.08;;;18.10;;
33864;SDS011;20159;51.072;13.526;2023-02-08T15:44:53;22.95;;;17.65;;
33864;SDS011;20159;51.072;13.526;2023-02-08T15:47:27;24.92;;;19.08;;
33864;SDS011;20159;51.072;13.526;2023-02-08T15:50:02;23.08;;;17.50;;
33864;SDS011;20159;51.072;13.526;2023-02-08T15:52:32;24.20;;;18.13;;
33864;SDS011;20159;51.072;13.526;2023-02-08T15:55:00;23.83;;;17.40;;
33864;SDS011;20159;51.072;13.526;2023-02-08T16:00:17;25.17;;;18.20;;
33864;SDS011;20159;51.072;13.526;2023-02-08T16:02:49;28.30;;;18.87;;
33864;SDS011;20159;51.072;13.526;2023-02-08T16:05:18;24.65;;;19.08;;
33864;SDS011;20159;51.072;13.526;2023-02-08T16:07:46;26.60;;;19.52;;
33864;SDS011;20159;51.072;13.526;2023-02-08T16:10:23;26.95;;;19.40;;
33864;SDS011;20159;51.072;13.526;2023-02-08T16:13:15;25.38;;;18.65;;
33864;SDS011;20159;51.072;13.526;2023-02-08T16:15:56;29.90;;;21.02;;
33864;SDS011;20159;51.072;13.526;2023-02-08T16:18:42;29.10;;;21.10;;
33864;SDS011;20159;51.072;13.526;2023-02-08T16:21:20;28.48;;;20.95;;
33864;SDS011;20159;51.072;13.526;2023-02-08T16:23:54;28.25;;;21.08;;